createdAt,value
2019-06-10T00:00:55.546Z,14.20
2019-06-10T00:03:25.017Z,14.20
2019-06-10T00:05:55.626Z,14.20
2019-06-10T00:08:25.137Z,14.30
2019-06-10T00:10:54.586Z,14.30
2019-06-10T00:13:24.133Z,14.30
2019-06-10T00:15:53.750Z,14.30
2019-06-10T00:18:39.871Z,14.40
2019-06-10T00:20:54.310Z,14.30
2019-06-10T00:23:23.761Z,14.30
2019-06-10T00:25:53.305Z,14.30
2019-06-10T00:28:22.754Z,14.30
2019-06-10T00:30:52.273Z,14.40
2019-06-10T00:33:21.763Z,14.30
2019-06-10T00:35:51.566Z,14.30
2019-06-10T00:38:21.373Z,14.30
2019-06-10T00:40:51.457Z,14.20
2019-06-10T00:43:21.407Z,14.20
2019-06-10T00:45:51.468Z,14.20
2019-06-10T00:48:26.179Z,14.20
2019-06-10T00:50:52.257Z,14.20
2019-06-10T00:53:21.706Z,14.10
2019-06-10T00:56:17.379Z,14.20
2019-06-10T00:58:46.823Z,14.20
2019-06-10T01:01:16.361Z,14.20
2019-06-10T01:03:45.809Z,14.20
2019-06-10T01:06:15.358Z,14.20
2019-06-10T01:08:45.873Z,14.10
2019-06-10T01:11:21.263Z,14.20
2019-06-10T01:13:46.474Z,14.10
2019-06-10T01:16:16.141Z,14.10
2019-06-10T01:18:45.589Z,14.10
2019-06-10T01:21:15.549Z,14.10
2019-06-10T01:23:45.098Z,14.10
2019-06-10T01:26:16.345Z,14.10
2019-06-10T01:28:45.714Z,14.10
2019-06-10T01:31:19.217Z,14.20
2019-06-10T01:33:46.312Z,14.10
2019-06-10T01:36:26.673Z,14.20
2019-06-10T01:38:56.126Z,14.10
2019-06-10T01:41:25.602Z,14.10
2019-06-10T01:43:55.125Z,14.10
2019-06-10T01:46:24.661Z,14.20
2019-06-10T01:48:54.116Z,14.20
2019-06-10T01:51:23.636Z,14.10
2019-06-10T01:53:53.148Z,14.10
2019-06-10T01:56:22.632Z,14.20
2019-06-10T01:58:53.368Z,14.10
2019-06-10T02:01:27.374Z,14.10
2019-06-10T02:03:56.812Z,14.00
2019-06-10T02:06:26.367Z,14.00
2019-06-10T02:09:06.430Z,14.00
2019-06-10T02:11:37.021Z,14.00
2019-06-10T02:14:07.152Z,14.00
2019-06-10T02:16:43.558Z,14.00
2019-06-10T02:19:15.487Z,14.00
2019-06-10T02:21:44.096Z,14.00
2019-06-10T02:24:14.785Z,14.00
2019-06-10T02:26:44.662Z,13.90
2019-06-10T02:29:14.694Z,13.90
2019-06-10T02:31:45.340Z,13.90
2019-06-10T02:34:18.333Z,13.80
2019-06-10T02:36:45.971Z,13.80
2019-06-10T02:39:21.461Z,13.80
2019-06-10T02:41:46.501Z,13.80
2019-06-10T02:44:21.800Z,13.80
2019-06-10T02:46:48.194Z,13.70
2019-06-10T02:49:35.577Z,13.70
2019-06-10T02:51:48.734Z,13.60
2019-06-10T02:54:20.226Z,13.60
2019-06-10T02:56:49.277Z,13.60
2019-06-10T02:59:21.768Z,13.60
2019-06-10T03:01:53.424Z,13.50
2019-06-10T03:04:26.712Z,13.60
2019-06-10T03:06:54.307Z,13.50
2019-06-10T03:09:29.143Z,13.60
2019-06-10T03:11:56.165Z,13.50
2019-06-10T03:14:25.602Z,13.50
2019-06-10T03:16:56.704Z,13.50
2019-06-10T03:19:41.921Z,13.50
2019-06-10T03:21:57.244Z,13.50
2019-06-10T03:24:27.509Z,13.50
2019-06-10T03:26:57.158Z,13.50
2019-06-10T03:29:28.100Z,13.40
2019-06-10T03:31:58.851Z,13.40
2019-06-10T03:34:36.011Z,13.40
2019-06-10T03:36:59.380Z,13.40
2019-06-10T03:39:28.829Z,13.40
2019-06-10T03:41:58.318Z,13.40
2019-06-10T03:44:28.733Z,13.30
2019-06-10T03:46:58.200Z,13.30
2019-06-10T03:49:28.825Z,13.40
2019-06-10T03:51:58.416Z,13.40
2019-06-10T03:54:29.450Z,13.40
2019-06-10T03:56:59.046Z,13.50
2019-06-10T03:59:29.634Z,13.60
2019-06-10T04:01:59.593Z,13.60
2019-06-10T04:04:29.074Z,13.60
2019-06-10T04:06:58.517Z,13.60
2019-06-10T04:09:28.881Z,13.70
2019-06-10T04:11:58.436Z,13.70
2019-06-10T04:14:28.487Z,13.70
2019-06-10T04:16:58.063Z,13.70
2019-06-10T04:19:28.750Z,13.70
2019-06-10T04:21:58.545Z,13.70
2019-06-10T04:24:28.631Z,13.70
2019-06-10T04:26:58.177Z,13.70
2019-06-10T04:29:28.954Z,13.70
2019-06-10T04:31:58.636Z,13.80
2019-06-10T04:34:30.132Z,13.70
2019-06-10T04:36:59.180Z,13.80
2019-06-10T04:39:29.267Z,13.90
2019-06-10T04:41:58.710Z,13.90
2019-06-10T04:44:29.379Z,13.90
2019-06-10T04:46:58.933Z,13.90
2019-06-10T04:49:29.771Z,14.00
2019-06-10T04:52:02.832Z,14.00
2019-06-10T04:54:33.235Z,14.10
2019-06-10T04:57:02.582Z,14.10
2019-06-10T04:59:33.686Z,14.20
2019-06-10T05:02:05.648Z,14.20
2019-06-10T05:04:34.219Z,14.20
2019-06-10T05:07:03.729Z,14.20
2019-06-10T05:09:33.648Z,14.20
2019-06-10T05:12:03.249Z,14.20
2019-06-10T05:14:33.408Z,14.20
2019-06-10T05:17:03.165Z,14.30
2019-06-10T05:19:33.829Z,14.30
2019-06-10T05:22:03.457Z,14.40
2019-06-10T05:24:34.375Z,14.50
2019-06-10T05:27:04.062Z,14.50
2019-06-10T05:29:34.152Z,14.60
2019-06-10T05:32:04.937Z,14.70
2019-06-10T05:34:34.846Z,14.70
2019-06-10T05:37:04.517Z,14.80
2019-06-10T05:39:35.120Z,14.80
2019-06-10T05:42:04.973Z,14.90
2019-06-10T05:44:34.708Z,14.90
2019-06-10T05:47:04.763Z,14.90
2019-06-10T05:49:35.966Z,14.90
2019-06-10T05:52:04.501Z,15.00
2019-06-10T05:54:35.478Z,15.00
2019-06-10T05:57:04.308Z,15.10
2019-06-10T05:59:35.472Z,15.10
2019-06-10T06:02:04.934Z,15.10
2019-06-10T06:04:35.926Z,15.20
2019-06-10T06:07:05.789Z,15.20
2019-06-10T06:09:35.458Z,15.30
2019-06-10T06:12:05.339Z,15.30
2019-06-10T06:14:36.133Z,15.30
2019-06-10T06:17:05.650Z,15.30
2019-06-10T06:19:37.377Z,15.30
2019-06-10T06:22:06.338Z,15.30
2019-06-10T06:24:35.834Z,15.30
2019-06-10T06:27:05.331Z,15.30
2019-06-10T06:29:36.609Z,15.40
2019-06-10T06:32:05.878Z,15.40
2019-06-10T06:34:37.453Z,15.40
2019-06-10T06:37:06.485Z,15.40
2019-06-10T06:39:37.059Z,15.40
2019-06-10T06:42:07.153Z,15.40
2019-06-10T06:44:38.124Z,15.50
2019-06-10T06:47:07.764Z,15.50
2019-06-10T06:49:38.522Z,15.60
2019-06-10T06:52:08.049Z,15.60
2019-06-10T06:54:38.124Z,15.70
2019-06-10T06:57:08.774Z,15.80
2019-06-10T06:59:39.078Z,15.90
2019-06-10T07:02:09.389Z,16.00
2019-06-10T07:04:38.930Z,16.10
2019-06-10T07:07:09.802Z,16.10
2019-06-10T07:09:42.776Z,16.20
2019-06-10T07:12:12.899Z,16.20
2019-06-10T07:14:45.114Z,16.20
2019-06-10T07:17:14.525Z,16.30
2019-06-10T07:19:45.845Z,16.30
2019-06-10T07:22:16.326Z,16.40
2019-06-10T07:24:47.658Z,16.40
2019-06-10T07:27:16.996Z,16.60
2019-06-10T07:29:47.350Z,16.70
2019-06-10T07:32:17.012Z,16.80
2019-06-10T07:34:47.024Z,17.00
2019-06-10T07:37:16.696Z,17.00
2019-06-10T07:39:46.174Z,17.10
2019-06-10T07:42:15.605Z,17.10
2019-06-10T07:44:45.394Z,17.20
2019-06-10T07:47:14.822Z,17.20
2019-06-10T07:49:45.572Z,17.20
2019-06-10T07:52:19.689Z,17.20
2019-06-10T07:54:46.430Z,17.20
2019-06-10T07:57:16.022Z,17.10
2019-06-10T07:59:45.986Z,17.10
2019-06-10T08:02:42.823Z,17.10
2019-06-10T08:05:12.831Z,17.20
2019-06-10T08:07:45.082Z,17.30
2019-06-10T08:10:13.746Z,17.30
2019-06-10T08:12:44.782Z,17.30
2019-06-10T08:15:14.521Z,17.40
2019-06-10T08:17:45.643Z,17.40
2019-06-10T08:20:17.442Z,17.50
2019-06-10T08:22:52.586Z,17.60
2019-06-10T08:25:18.125Z,17.60
2019-06-10T08:27:53.038Z,17.60
2019-06-10T08:30:27.263Z,17.50
2019-06-10T08:32:56.523Z,17.50
2019-06-10T08:35:37.935Z,17.50
2019-06-10T08:37:55.826Z,17.50
2019-06-10T08:40:25.374Z,17.60
2019-06-10T08:42:54.887Z,17.60
2019-06-10T08:45:24.488Z,17.80
2019-06-10T08:47:54.285Z,17.80
2019-06-10T08:50:24.802Z,17.90
2019-06-10T08:53:13.262Z,17.90
2019-06-10T08:55:26.582Z,17.90
2019-06-10T08:57:56.165Z,17.80
2019-06-10T09:00:26.185Z,17.80
2019-06-10T09:02:54.924Z,17.80
2019-06-10T09:05:24.373Z,17.80
2019-06-10T09:07:54.610Z,17.80
2019-06-10T09:10:26.165Z,17.80
2019-06-10T09:12:55.689Z,17.70
2019-06-10T09:15:25.514Z,17.80
2019-06-10T09:17:56.166Z,17.70
2019-06-10T09:20:26.746Z,17.70
2019-06-10T09:23:16.795Z,17.70
2019-06-10T09:25:27.525Z,17.80
2019-06-10T09:27:57.071Z,17.90
2019-06-10T09:30:27.014Z,17.90
2019-06-10T09:32:57.578Z,18.10
2019-06-10T09:35:26.776Z,18.30
2019-06-10T09:37:57.141Z,18.60
2019-06-10T09:40:48.382Z,19.00
2019-06-10T09:43:16.644Z,19.40
2019-06-10T09:45:49.199Z,19.60
2019-06-10T09:48:22.800Z,19.70
2019-06-10T09:50:57.828Z,19.80
2019-06-10T09:53:33.533Z,19.70
2019-06-10T09:56:03.846Z,19.70
2019-06-10T09:58:32.962Z,19.80
2019-06-10T10:01:03.423Z,19.90
2019-06-10T10:03:42.398Z,20.30
2019-06-10T10:06:15.975Z,20.50
2019-06-10T10:08:57.473Z,20.90
2019-06-10T10:11:34.965Z,21.10
2019-06-10T10:14:06.316Z,21.30
2019-06-10T10:16:34.956Z,21.40
2019-06-10T10:19:05.480Z,21.40
2019-06-10T10:21:35.250Z,21.30
2019-06-10T10:24:10.599Z,21.30
2019-06-10T10:26:36.101Z,21.30
2019-06-10T10:29:05.707Z,21.50
2019-06-10T10:31:35.291Z,22.00
2019-06-10T10:34:04.842Z,22.40
2019-06-10T10:36:34.339Z,22.70
2019-06-10T10:39:05.422Z,23.10
2019-06-10T10:41:36.447Z,23.50
2019-06-10T10:44:10.436Z,23.90
2019-06-10T10:46:39.832Z,24.30
2019-06-10T10:49:09.296Z,24.60
2019-06-10T10:51:38.819Z,25.00
2019-06-10T10:54:22.506Z,25.50
2019-06-10T10:56:39.371Z,25.40
2019-06-10T10:59:08.882Z,25.40
2019-06-10T11:01:38.372Z,25.70
2019-06-10T11:04:07.882Z,25.90
2019-06-10T11:06:37.410Z,25.90
2019-06-10T11:09:09.035Z,25.80
2019-06-10T11:11:43.113Z,25.70
2019-06-10T11:14:14.977Z,25.50
2019-06-10T11:16:43.352Z,25.30
2019-06-10T11:19:13.089Z,24.90
2019-06-10T11:21:43.244Z,24.30
2019-06-10T11:24:15.812Z,23.80
2019-06-10T11:26:43.957Z,23.30
2019-06-10T11:29:13.431Z,22.90
2019-06-10T11:31:42.966Z,22.60
2019-06-10T11:34:12.515Z,22.40
2019-06-10T11:36:42.694Z,22.20
2019-06-10T11:39:13.392Z,22.10
2019-06-10T11:41:43.727Z,22.20
2019-06-10T11:44:14.777Z,22.10
2019-06-10T11:46:43.452Z,22.20
2019-06-10T11:49:12.849Z,22.20
2019-06-10T11:51:42.298Z,22.20
2019-06-10T11:54:13.032Z,22.30
2019-06-10T11:56:42.481Z,22.30
2019-06-10T11:59:13.476Z,22.50
2019-06-10T12:01:43.178Z,22.70
2019-06-10T12:04:13.016Z,23.00
2019-06-10T12:06:43.758Z,23.20
2019-06-10T12:09:13.702Z,23.20
2019-06-10T12:11:43.993Z,23.30
2019-06-10T12:14:13.613Z,23.30
2019-06-10T12:19:15.121Z,23.10
2019-06-10T12:21:44.569Z,22.90
2019-06-10T12:24:14.037Z,22.60
2019-06-10T12:26:43.645Z,22.30
2019-06-10T12:29:14.127Z,22.10
2019-06-10T12:31:43.600Z,22.00
2019-06-10T12:34:13.097Z,21.90
2019-06-10T12:36:42.547Z,21.70
2019-06-10T12:39:15.680Z,21.50
2019-06-10T12:41:43.240Z,21.40
2019-06-10T12:44:13.270Z,21.30
2019-06-10T12:46:43.377Z,21.20
2019-06-10T12:49:18.136Z,21.00
2019-06-10T12:51:45.052Z,20.80
2019-06-10T12:54:14.526Z,20.70
2019-06-10T12:56:43.974Z,20.50
2019-06-10T12:59:13.806Z,20.40
2019-06-10T13:01:45.035Z,20.40
2019-06-10T13:04:15.369Z,20.50
2019-06-10T13:06:47.926Z,20.50
2019-06-10T13:09:18.929Z,20.50
2019-06-10T13:11:48.381Z,20.70
2019-06-10T13:14:18.481Z,20.70
2019-06-10T13:16:48.093Z,20.80
2019-06-10T13:19:17.566Z,20.80
2019-06-10T13:21:47.090Z,20.70
2019-06-10T13:24:16.561Z,20.70
2019-06-10T13:26:46.000Z,20.60
2019-06-10T13:29:17.715Z,20.40
2019-06-10T13:31:46.534Z,20.20
2019-06-10T13:34:16.028Z,20.10
2019-06-10T13:36:45.465Z,20.00
2019-06-10T13:39:14.917Z,20.00
2019-06-10T13:41:44.463Z,19.80
2019-06-10T13:44:16.557Z,19.70
2019-06-10T13:46:45.006Z,19.70
2019-06-10T13:49:15.514Z,19.70
2019-06-10T13:51:45.127Z,19.70
2019-06-10T13:54:14.565Z,19.60
2019-06-10T13:56:47.410Z,19.50
2019-06-10T13:59:16.177Z,19.40
2019-06-10T14:01:45.645Z,19.20
2019-06-10T14:04:21.557Z,19.00
2019-06-10T14:06:50.579Z,18.90
2019-06-10T14:09:19.356Z,18.70
2019-06-10T14:11:48.837Z,18.60
2019-06-10T14:14:24.026Z,18.40
2019-06-10T14:16:54.099Z,18.30
2019-06-10T14:19:24.121Z,18.20
2019-06-10T14:21:53.584Z,18.10
2019-06-10T14:24:23.098Z,17.90
2019-06-10T14:26:53.148Z,17.90
2019-06-10T14:29:22.741Z,17.80
2019-06-10T14:31:53.510Z,17.80
2019-06-10T14:34:23.115Z,17.70
2019-06-10T14:36:52.653Z,17.60
2019-06-10T14:39:22.251Z,17.60
2019-06-10T14:41:52.313Z,17.50
2019-06-10T14:44:23.419Z,17.40
2019-06-10T14:46:53.241Z,17.30
2019-06-10T14:49:22.685Z,17.30
2019-06-10T14:51:53.812Z,17.20
2019-06-10T14:54:23.214Z,17.10
2019-06-10T14:56:56.954Z,17.00
2019-06-10T14:59:23.758Z,17.00
2019-06-10T15:01:53.235Z,17.10
2019-06-10T15:04:22.689Z,17.00
2019-06-10T15:06:53.717Z,17.10
2019-06-10T15:09:24.482Z,17.00
2019-06-10T15:11:53.949Z,17.10
2019-06-10T15:14:23.511Z,17.10
2019-06-10T15:16:54.154Z,17.10
2019-06-10T15:19:28.647Z,17.20
2019-06-10T15:21:54.697Z,17.30
2019-06-10T15:24:24.142Z,17.40
2019-06-10T15:27:09.101Z,17.40
2019-06-10T15:29:25.752Z,17.50
2019-06-10T15:32:09.232Z,17.60
2019-06-10T15:34:26.357Z,17.70
2019-06-10T15:36:55.825Z,17.70
2019-06-10T15:39:25.271Z,17.70
2019-06-10T15:41:54.743Z,17.70
2019-06-10T15:44:47.498Z,17.70
2019-06-10T15:46:55.353Z,17.60
2019-06-10T15:49:26.185Z,17.60
2019-06-10T15:51:55.779Z,17.60
2019-06-10T15:54:25.562Z,17.60
2019-06-10T15:56:56.502Z,17.60
2019-06-10T15:59:30.114Z,17.50
2019-06-10T16:02:02.393Z,17.50
2019-06-10T16:04:35.134Z,17.40
2019-06-10T16:07:02.911Z,17.40
2019-06-10T16:09:32.370Z,17.40
2019-06-10T16:12:02.979Z,17.40
2019-06-10T16:14:35.240Z,17.30
2019-06-10T16:17:04.777Z,17.30
2019-06-10T16:19:34.235Z,17.30
2019-06-10T16:22:04.864Z,17.30
2019-06-10T16:24:34.382Z,17.30
2019-06-10T16:27:03.937Z,17.30
2019-06-10T16:29:34.446Z,17.40
2019-06-10T16:32:03.923Z,17.40
2019-06-10T16:34:33.381Z,17.40
2019-06-10T16:37:02.856Z,17.50
2019-06-10T16:39:32.690Z,17.50
2019-06-10T16:42:02.988Z,17.50
2019-06-10T16:44:33.124Z,17.40
2019-06-10T16:47:03.197Z,17.40
2019-06-10T16:49:32.971Z,17.40
2019-06-10T16:52:03.019Z,17.40
2019-06-10T16:54:33.155Z,17.50
2019-06-10T16:57:03.821Z,17.40
2019-06-10T16:59:33.832Z,17.50
2019-06-10T17:02:16.922Z,17.40
2019-06-10T17:04:47.682Z,17.40
2019-06-10T17:07:18.431Z,17.40
2019-06-10T17:09:47.882Z,17.40
2019-06-10T17:12:17.755Z,17.40
2019-06-10T17:14:47.321Z,17.40
2019-06-10T17:17:16.869Z,17.40
2019-06-10T17:19:46.354Z,17.40
2019-06-10T17:22:15.801Z,17.40
2019-06-10T17:24:45.398Z,17.30
2019-06-10T17:27:14.857Z,17.20
2019-06-10T17:29:44.333Z,17.20
2019-06-10T17:32:13.908Z,17.20
2019-06-10T17:34:44.444Z,17.20
2019-06-10T17:37:14.387Z,17.10
2019-06-10T17:39:43.082Z,17.10
2019-06-10T17:42:13.593Z,17.10
2019-06-10T17:44:43.066Z,17.10
2019-06-10T17:47:13.257Z,17.00
2019-06-10T17:49:42.985Z,17.00
2019-06-10T17:52:13.083Z,17.00
2019-06-10T17:54:42.665Z,16.90
2019-06-10T17:57:12.781Z,16.90
2019-06-10T18:00:12.189Z,16.80
2019-06-10T18:02:39.419Z,16.80
2019-06-10T18:05:09.275Z,16.80
2019-06-10T18:07:38.800Z,16.80
2019-06-10T18:10:08.913Z,16.70
2019-06-10T18:12:38.358Z,16.70
2019-06-10T18:15:08.371Z,16.60
2019-06-10T18:17:37.825Z,16.60
2019-06-10T18:20:07.942Z,16.60
2019-06-10T18:22:37.394Z,16.60
2019-06-10T18:25:07.696Z,16.70
2019-06-10T18:27:37.150Z,16.60
2019-06-10T18:30:13.352Z,16.60
2019-06-10T18:32:38.922Z,16.60
2019-06-10T18:35:09.237Z,16.60
2019-06-10T18:37:39.158Z,16.60
2019-06-10T18:40:08.142Z,16.70
2019-06-10T18:42:39.013Z,16.60
2019-06-10T18:45:12.923Z,16.60
2019-06-10T18:47:42.340Z,16.60
2019-06-10T18:50:13.895Z,16.60
2019-06-10T18:52:43.493Z,16.60
2019-06-10T18:55:14.035Z,16.50
2019-06-10T18:57:43.552Z,16.50
2019-06-10T19:00:14.771Z,16.50
2019-06-10T19:02:44.313Z,16.40
2019-06-10T19:05:15.602Z,16.40
2019-06-10T19:07:46.861Z,16.40
2019-06-10T19:10:16.785Z,16.40
2019-06-10T19:12:46.238Z,16.40
2019-06-10T19:15:16.354Z,16.30
2019-06-10T19:17:45.879Z,16.30
2019-06-10T19:20:15.900Z,16.30
2019-06-10T19:22:45.345Z,16.20
2019-06-10T19:25:17.165Z,16.20
2019-06-10T19:27:46.690Z,16.20
2019-06-10T19:30:16.913Z,16.20
2019-06-10T19:32:46.353Z,16.20
2019-06-10T19:35:16.268Z,16.20
2019-06-10T19:37:44.937Z,16.10
2019-06-10T19:40:15.161Z,16.20
2019-06-10T19:42:44.842Z,16.20
2019-06-10T19:45:14.630Z,16.10
2019-06-10T19:47:45.707Z,16.10
2019-06-10T19:50:15.404Z,16.00
2019-06-10T19:52:45.510Z,16.10
2019-06-10T19:55:15.461Z,16.00
2019-06-10T19:57:44.910Z,16.00
2019-06-10T20:00:15.329Z,16.00
2019-06-10T20:02:46.919Z,16.00
2019-06-10T20:05:16.248Z,15.90
2019-06-10T20:07:50.342Z,15.90
2019-06-10T20:10:18.185Z,15.90
2019-06-10T20:12:48.597Z,15.80
2019-06-10T20:15:22.675Z,15.80
2019-06-10T20:17:53.924Z,15.80
2019-06-10T20:20:23.537Z,15.70
2019-06-10T20:22:55.110Z,15.70
2019-06-10T20:25:26.714Z,15.70
2019-06-10T20:27:56.176Z,15.60
2019-06-10T20:30:28.897Z,15.60
2019-06-10T20:32:57.198Z,15.60
2019-06-10T20:35:26.785Z,15.50
2019-06-10T20:37:56.262Z,15.50
2019-06-10T20:40:25.726Z,15.50
2019-06-10T20:42:55.211Z,15.50
2019-06-10T20:45:24.657Z,15.50
2019-06-10T20:47:54.138Z,15.40
2019-06-10T20:50:23.821Z,15.40
2019-06-10T20:52:53.374Z,15.40
2019-06-10T20:55:24.732Z,15.40
2019-06-10T20:58:03.043Z,15.30
2019-06-10T21:00:40.555Z,15.30
2019-06-10T21:03:08.650Z,15.30
2019-06-10T21:05:39.449Z,15.20
2019-06-10T21:08:09.181Z,15.20
2019-06-10T21:10:39.844Z,15.20
2019-06-10T21:13:09.430Z,15.20
2019-06-10T21:15:40.535Z,15.20
2019-06-10T21:18:10.054Z,15.20
2019-06-10T21:20:41.325Z,15.20
2019-06-10T21:23:13.762Z,15.10
2019-06-10T21:25:45.777Z,15.10
2019-06-10T21:28:14.218Z,15.10
2019-06-10T21:30:49.622Z,15.20
2019-06-10T21:33:14.862Z,15.20
2019-06-10T21:35:46.883Z,15.20
2019-06-10T21:38:15.531Z,15.20
2019-06-10T21:40:45.477Z,15.20
2019-06-10T21:43:16.178Z,15.20
2019-06-10T21:45:53.334Z,15.20
2019-06-10T21:48:17.935Z,15.20
2019-06-10T21:50:48.721Z,15.20
2019-06-10T21:53:18.489Z,15.20
2019-06-10T21:55:48.746Z,15.20
2019-06-10T21:58:18.330Z,15.20
2019-06-10T22:01:01.193Z,15.20
2019-06-10T22:03:23.397Z,15.20
2019-06-10T22:05:53.684Z,15.20
2019-06-10T22:08:23.334Z,15.20
2019-06-10T22:14:16.796Z,15.20
2019-06-10T22:16:46.382Z,15.20
2019-06-10T22:19:15.862Z,15.10
2019-06-10T22:21:46.435Z,15.10
2019-06-10T22:24:15.989Z,15.00
2019-06-10T22:26:45.433Z,14.90
2019-06-10T22:29:14.917Z,14.90
2019-06-10T22:31:45.211Z,14.80
2019-06-10T22:34:14.749Z,14.80
2019-06-10T22:36:45.480Z,14.80
2019-06-10T22:39:16.020Z,14.80
2019-06-10T22:41:46.772Z,14.70
2019-06-10T22:44:16.425Z,14.70
2019-06-10T22:46:45.886Z,14.70
2019-06-10T22:49:15.361Z,14.60
2019-06-10T22:51:44.813Z,14.60
2019-06-10T22:54:14.288Z,14.60
2019-06-10T22:56:43.753Z,14.60
2019-06-10T22:59:13.294Z,14.60
2019-06-10T23:01:42.799Z,14.60
2019-06-10T23:04:13.474Z,14.60
2019-06-10T23:06:43.024Z,14.60
2019-06-10T23:09:12.979Z,14.50
2019-06-10T23:11:42.568Z,14.50
2019-06-10T23:14:12.355Z,14.50
2019-06-10T23:16:42.765Z,14.50
2019-06-10T23:19:13.034Z,14.40
2019-06-10T23:21:43.693Z,14.40
2019-06-10T23:24:13.546Z,14.50
2019-06-10T23:26:42.527Z,14.40
2019-06-10T23:29:12.347Z,14.40
2019-06-10T23:31:51.737Z,14.40
2019-06-10T23:34:16.633Z,14.40
2019-06-10T23:36:43.295Z,14.40
2019-06-10T23:39:13.213Z,14.40
2019-06-10T23:41:43.348Z,14.40
2019-06-10T23:44:12.957Z,14.30
2019-06-10T23:46:42.670Z,14.30
2019-06-10T23:49:12.418Z,14.30
2019-06-10T23:51:42.368Z,14.30
2019-06-10T23:54:12.650Z,14.20
2019-06-10T23:56:42.821Z,14.20
2019-06-10T23:59:12.388Z,14.20
